Terminal Aerodrome Forecast
Issued by NWS Amarillo, TX

Home | Current Version | Previous Version | Text Only | Print | Product List | Glossary On
Versions: 1 2 3 4 5 6 7 8 9 10 11 12 13 14 15 16 17 18 19 20 21 22 23 24 25
000
FTUS44 KAMA 021100
TAFAMA
TAF
KAMA 021121Z 0212/0312 16010KT P6SM VCTS SCT040CB BKN070
      TEMPO 0212/0215 3SM TSRA BKN035CB
     FM021500 21011KT P6SM SCT045 BKN300
     FM022300 15011KT P6SM SCT040 BKN120 OVC300 PROB30 0302/0306
      -TSRA BKN040CB=

USA.gov is the U.S. government's official web portal to all federal, state and local government web resources and services.